Time;durP1;ratioP1;P1;durP2;ratioP2;P2;SDS_P1;SDS_P2;PMS_P1;PMS_P2;Temp;Humidity;BMP_temperature;BMP_pressure;BME280_temperature;BME280_humidity;BME280_pressure;Samples;Min_cycle;Max_cycle;Signal;HPM_P1;HPM_P2
2022/01/18 00:01:30;;;;;;;73.25;16.95;;;6.90;99.90;;;;;;5059277;28;20127;-69
2022/01/18 00:03:57;;;;;;;65.47;13.63;;;6.90;99.90;;;;;;5067067;28;20052;-69
2022/01/18 00:06:23;;;;;;;69.18;15.05;;;6.90;99.90;;;;;;5065007;28;20513;-69
2022/01/18 00:08:49;;;;;;;95.47;16.80;;;6.90;99.90;;;;;;5067033;28;20057;-69
2022/01/18 00:11:17;;;;;;;75.97;15.18;;;6.90;99.90;;;;;;5065095;28;20067;-69
2022/01/18 00:13:46;;;;;;;;;;;7.00;99.90;;;;;;5071573;28;20053;-69
2022/01/18 00:16:25;;;;;;;80.63;14.50;;;7.00;99.90;;;;;;5067679;28;20022;-70
2022/01/18 00:18:53;;;;;;;81.30;15.43;;;7.00;99.90;;;;;;5060061;28;20142;-69
2022/01/18 00:21:37;;;;;;;84.63;16.13;;;7.00;99.90;;;;;;5069171;28;20083;-69
2022/01/18 00:24:03;;;;;;;76.75;14.52;;;7.00;99.90;;;;;;5062938;28;20040;-69
2022/01/18 00:26:31;;;;;;;71.18;13.50;;;7.10;99.90;;;;;;5064456;28;20052;-69
2022/01/18 00:29:04;;;;;;;83.25;14.23;;;7.10;99.90;;;;;;5068294;28;20050;-69
2022/01/18 00:31:40;;;;;;;79.60;16.27;;;7.10;99.90;;;;;;5055569;28;20630;-69
2022/01/18 00:36:51;;;;;;;78.05;16.52;;;7.10;99.90;;;;;;5066491;28;20079;-69
2022/01/18 00:39:18;;;;;;;77.93;16.02;;;7.10;99.90;;;;;;5060644;28;20105;-69
2022/01/18 00:41:43;;;;;;;92.40;17.20;;;7.10;99.90;;;;;;5062094;28;20041;-69
2022/01/18 00:44:10;;;;;;;88.63;15.48;;;7.10;99.90;;;;;;5059178;28;20061;-69
2022/01/18 00:46:36;;;;;;;74.18;15.60;;;7.20;99.90;;;;;;5069025;28;20083;-69
2022/01/18 00:49:03;;;;;;;77.80;15.32;;;7.10;99.90;;;;;;5065846;28;20044;-69
2022/01/18 00:51:36;;;;;;;85.30;16.08;;;7.10;99.90;;;;;;5066036;28;20052;-69
2022/01/18 00:54:03;;;;;;;85.13;16.75;;;7.10;99.90;;;;;;5069088;28;20082;-69
2022/01/18 00:56:31;;;;;;;73.95;13.43;;;7.10;99.90;;;;;;5064662;28;20044;-69
2022/01/18 00:58:58;;;;;;;83.97;16.85;;;7.10;99.90;;;;;;5068331;28;20040;-69
2022/01/18 01:01:27;;;;;;;64.30;12.38;;;7.10;99.90;;;;;;5067360;28;20048;-70
2022/01/18 01:03:56;;;;;;;70.25;14.65;;;7.10;99.90;;;;;;5066221;28;20048;-70
2022/01/18 01:06:22;;;;;;;;;;;7.10;99.90;;;;;;5068143;28;20071;-69
2022/01/18 01:08:48;;;;;;;80.38;17.25;;;7.10;99.90;;;;;;5068168;28;19969;-69
2022/01/18 01:11:14;;;;;;;66.57;12.38;;;7.00;99.90;;;;;;5049724;28;20044;-69
2022/01/18 01:13:44;;;;;;;76.88;15.93;;;7.10;99.90;;;;;;5066223;28;20044;-70
2022/01/18 01:45:35;;;;;;;49.17;13.70;;;6.90;99.90;;;;;;5065653;28;20140;-69
2022/01/18 01:48:02;;;;;;;57.47;13.93;;;6.90;99.90;;;;;;5066984;28;20055;-69
2022/01/18 01:50:40;;;;;;;46.03;12.95;;;6.90;99.90;;;;;;5067412;28;20429;-69
2022/01/18 01:53:06;;;;;;;46.05;12.68;;;6.90;99.90;;;;;;5066987;28;20061;-69
2022/01/18 01:55:32;;;;;;;56.05;15.13;;;6.80;99.90;;;;;;5063636;28;20040;-69
2022/01/18 01:57:57;;;;;;;58.13;13.45;;;6.90;99.90;;;;;;5069401;28;20837;-69
2022/01/18 02:00:23;;;;;;;54.47;15.20;;;6.80;99.90;;;;;;5064261;28;20054;-69
2022/01/18 02:02:49;;;;;;;63.15;14.40;;;6.80;99.90;;;;;;5064176;28;20088;-69
2022/01/18 02:05:16;;;;;;;65.63;15.05;;;6.80;99.90;;;;;;5067990;28;20079;-69
2022/01/18 02:07:42;;;;;;;63.78;14.73;;;6.80;99.90;;;;;;5066201;28;20053;-69
2022/01/18 02:10:10;;;;;;;53.80;13.95;;;6.80;99.90;;;;;;5066351;28;20056;-69
2022/01/18 02:12:36;;;;;;;56.40;15.23;;;6.80;99.90;;;;;;5064049;28;20543;-69
2022/01/18 02:15:11;;;;;;;62.65;15.85;;;6.80;99.90;;;;;;5065102;28;20793;-69
2022/01/18 02:23:15;;;;;;;64.57;16.02;;;6.70;99.90;;;;;;5070797;28;20527;-69
2022/01/18 02:25:41;;;;;;;37.65;12.73;;;6.70;99.90;;;;;;5065875;28;20052;-69
2022/01/18 02:28:07;;;;;;;47.30;12.70;;;6.70;99.90;;;;;;5061635;28;20041;-69
2022/01/18 02:30:32;;;;;;;52.25;13.88;;;6.80;99.90;;;;;;5069075;28;20052;-69
2022/01/18 02:32:58;;;;;;;56.33;14.70;;;6.70;99.90;;;;;;5067349;28;20067;-69
2022/01/18 02:35:24;;;;;;;44.58;11.50;;;6.70;99.90;;;;;;5066651;28;20053;-69
2022/01/18 02:37:53;;;;;;;52.95;12.77;;;6.70;99.90;;;;;;5060841;28;20043;-70
2022/01/18 02:40:19;;;;;;;56.92;14.02;;;6.70;99.90;;;;;;5052638;28;20061;-69
2022/01/18 02:42:56;;;;;;;57.20;14.45;;;6.70;99.90;;;;;;5066314;28;20094;-69
2022/01/18 02:45:22;;;;;;;62.90;13.98;;;6.70;99.90;;;;;;5063647;28;20061;-69
2022/01/18 02:47:47;;;;;;;46.95;13.95;;;6.70;99.90;;;;;;5054852;28;20048;-69
2022/01/18 02:50:13;;;;;;;60.40;13.52;;;6.70;99.90;;;;;;5064858;28;20086;-70
2022/01/18 02:52:40;;;;;;;45.75;12.40;;;6.70;99.90;;;;;;5058841;28;20052;-69
2022/01/18 02:55:06;;;;;;;43.17;12.65;;;6.60;99.90;;;;;;5069071;28;20049;-69
2022/01/18 02:57:40;;;;;;;45.75;13.15;;;6.60;99.90;;;;;;5066031;28;20053;-69
2022/01/18 03:00:18;;;;;;;47.60;12.50;;;6.60;99.90;;;;;;5066955;28;20039;-69
2022/01/18 03:05:27;;;;;;;54.42;14.25;;;6.60;99.90;;;;;;5063378;28;20072;-69
2022/01/18 03:07:53;;;;;;;59.05;12.45;;;6.60;99.90;;;;;;5066474;28;20134;-69
2022/01/18 03:10:19;;;;;;;39.22;10.05;;;6.60;99.90;;;;;;5041450;28;20103;-69
2022/01/18 03:12:46;;;;;;;42.95;10.25;;;6.60;99.90;;;;;;5066367;28;20162;-69
2022/01/18 03:15:12;;;;;;;37.15;12.13;;;6.60;99.90;;;;;;5062933;28;20110;-69
2022/01/18 03:17:38;;;;;;;53.88;12.32;;;6.60;99.90;;;;;;5062941;28;20501;-69
2022/01/18 03:20:05;;;;;;;38.88;10.65;;;6.60;99.90;;;;;;5044107;28;20085;-69
2022/01/18 03:22:31;;;;;;;52.87;12.13;;;6.60;99.90;;;;;;5064341;28;20394;-69
2022/01/18 03:25:24;;;;;;;39.28;11.30;;;6.50;99.90;;;;;;5066952;28;20306;-69
2022/01/18 03:28:07;;;;;;;55.85;11.93;;;6.50;99.90;;;;;;5059980;28;20146;-69
2022/01/18 03:30:36;;;;;;;51.05;12.15;;;6.60;99.90;;;;;;5065755;28;20040;-69
2022/01/18 03:33:04;;;;;;;42.70;10.32;;;6.60;99.90;;;;;;5063440;28;20052;-69
2022/01/18 03:35:30;;;;;;;33.95;9.90;;;6.60;99.90;;;;;;5062714;28;20048;-69
2022/01/18 03:37:55;;;;;;;45.83;11.80;;;6.50;99.90;;;;;;5065592;28;20045;-69
2022/01/18 03:40:22;;;;;;;36.60;11.88;;;6.50;99.90;;;;;;5069060;28;20159;-69
2022/01/18 03:42:49;;;;;;;43.33;11.35;;;6.50;99.90;;;;;;5069161;28;20040;-69
2022/01/18 03:45:23;;;;;;;39.78;9.90;;;6.50;99.90;;;;;;5044742;28;20101;-69
2022/01/18 03:47:49;;;;;;;56.85;10.57;;;6.50;99.90;;;;;;5073468;28;20051;-69
2022/01/18 03:50:16;;;;;;;41.90;10.95;;;6.50;99.90;;;;;;5066606;28;20055;-69
2022/01/18 03:52:42;;;;;;;37.70;9.60;;;6.50;99.90;;;;;;5063494;28;20375;-70
2022/01/18 03:55:10;;;;;;;51.10;9.43;;;6.50;99.90;;;;;;5066877;28;20115;-69
2022/01/18 03:57:36;;;;;;;48.90;10.27;;;6.50;99.90;;;;;;5069627;28;20524;-69
2022/01/18 04:00:23;;;;;;;48.42;11.45;;;6.50;99.90;;;;;;5067335;28;20287;-69
2022/01/18 04:02:52;;;;;;;37.30;8.43;;;6.50;99.90;;;;;;5065718;28;20667;-69
2022/01/18 04:05:17;;;;;;;32.00;8.88;;;6.50;99.90;;;;;;5068137;28;20508;-69
2022/01/18 04:07:44;;;;;;;34.25;8.05;;;6.50;99.90;;;;;;5067117;28;20040;-69
2022/01/18 04:10:10;;;;;;;26.95;8.98;;;6.50;99.90;;;;;;5058859;28;20045;-69
2022/01/18 04:12:36;;;;;;;33.92;8.02;;;6.60;99.90;;;;;;5067154;28;20052;-69
2022/01/18 04:15:03;;;;;;;39.22;8.85;;;6.60;99.90;;;;;;5064287;28;20090;-69
2022/01/18 04:17:46;;;;;;;60.50;10.02;;;6.60;99.90;;;;;;5072864;28;20118;-69
2022/01/18 04:26:03;;;;;;;32.13;7.47;;;6.60;99.90;;;;;;5051793;28;20584;-69
2022/01/18 04:31:05;;;;;;;35.38;7.00;;;6.60;99.90;;;;;;5069679;28;20076;-69
2022/01/18 04:33:31;;;;;;;22.92;7.25;;;6.60;99.90;;;;;;5068471;28;20066;-70
2022/01/18 04:35:57;;;;;;;26.88;6.45;;;6.60;99.90;;;;;;5067578;28;20048;-70
2022/01/18 04:38:23;;;;;;;29.80;7.47;;;6.60;99.90;;;;;;5069396;28;20049;-69
2022/01/18 04:40:49;;;;;;;32.13;7.63;;;6.60;99.90;;;;;;5066366;28;20036;-69
2022/01/18 04:43:27;;;;;;;34.92;8.15;;;6.50;99.90;;;;;;5059464;28;20048;-69
2022/01/18 04:48:39;;;;;;;33.25;8.55;;;6.50;99.90;;;;;;5066715;28;20432;-69
2022/01/18 04:51:09;;;;;;;29.80;8.32;;;6.50;99.90;;;;;;5075946;28;20043;-70
2022/01/18 04:53:38;;;;;;;41.38;10.73;;;6.50;99.90;;;;;;5069581;28;20041;-69
2022/01/18 04:56:09;;;;;;;34.10;9.00;;;6.50;99.90;;;;;;5065911;28;20052;-69
2022/01/18 04:58:35;;;;;;;31.50;8.63;;;6.50;99.90;;;;;;5063556;28;20060;-70
2022/01/18 05:01:03;;;;;;;40.50;9.55;;;6.50;99.90;;;;;;5062222;28;20115;-69
2022/01/18 05:03:29;;;;;;;26.30;8.27;;;6.50;99.90;;;;;;5068732;28;20040;-69
2022/01/18 05:05:59;;;;;;;30.40;7.60;;;6.50;99.90;;;;;;5066425;28;20088;-69
2022/01/18 05:08:25;;;;;;;31.45;8.70;;;6.50;99.90;;;;;;5082179;28;20056;-69
2022/01/18 05:10:56;;;;;;;21.05;6.88;;;6.50;99.90;;;;;;5070296;28;20052;-69
2022/01/18 05:19:07;;;;;;;20.17;6.65;;;6.50;99.90;;;;;;5060068;28;20094;-69
2022/01/18 05:22:58;;;;;;;35.83;7.00;;;6.50;99.90;;;;;;5063371;28;20055;-70
2022/01/18 05:24:25;;;;;;;30.55;6.03;;;6.50;99.90;;;;;;5066632;28;20060;-70
2022/01/18 05:26:52;;;;;;;21.48;6.45;;;6.50;99.90;;;;;;5064853;28;20123;-70
2022/01/18 05:29:20;;;;;;;18.92;7.10;;;6.50;99.90;;;;;;5067093;28;20072;-70
2022/01/18 05:31:46;;;;;;;33.22;7.38;;;6.50;99.90;;;;;;5063946;28;20044;-70
2022/01/18 05:34:12;;;;;;;22.75;6.68;;;6.40;99.90;;;;;;5064012;28;20106;-70
2022/01/18 05:36:38;;;;;;;19.25;6.18;;;6.40;99.90;;;;;;5064886;28;20048;-70
2022/01/18 05:39:06;;;;;;;22.17;6.68;;;6.40;99.90;;;;;;5060699;28;20040;-70
2022/01/18 05:41:33;;;;;;;31.92;6.45;;;6.40;99.90;;;;;;5061311;28;20445;-70
2022/01/18 05:43:58;;;;;;;17.02;4.78;;;6.40;99.90;;;;;;5066571;28;20127;-70
2022/01/18 05:46:24;;;;;;;15.10;5.13;;;6.40;99.90;;;;;;5064816;28;20037;-70
2022/01/18 05:48:50;;;;;;;21.13;5.22;;;6.40;99.90;;;;;;5062324;28;20754;-70
2022/01/18 05:51:16;;;;;;;20.85;5.85;;;6.40;99.90;;;;;;5060414;28;20048;-70
2022/01/18 05:53:41;;;;;;;24.13;6.28;;;6.40;99.90;;;;;;5067480;28;20096;-70
2022/01/18 05:56:11;;;;;;;24.38;6.28;;;6.40;99.90;;;;;;5057450;28;20036;-70
2022/01/18 05:58:45;;;;;;;16.40;5.45;;;6.40;99.90;;;;;;5066340;28;20041;-70
2022/01/18 06:01:24;;;;;;;18.35;4.18;;;6.40;99.90;;;;;;5064852;28;20406;-69
2022/01/18 06:09:09;;;;;;;23.08;6.05;;;6.40;99.90;;;;;;5064219;28;20056;-69
2022/01/18 06:11:36;;;;;;;24.42;6.05;;;6.40;99.90;;;;;;5049987;28;20094;-69
2022/01/18 06:14:01;;;;;;;20.33;6.30;;;6.40;99.90;;;;;;5066568;28;20064;-69
2022/01/18 06:16:27;;;;;;;28.80;5.75;;;6.30;99.90;;;;;;5066944;28;20107;-69
2022/01/18 06:18:54;;;;;;;22.88;6.22;;;6.40;99.90;;;;;;5067016;28;20576;-69
2022/01/18 06:21:21;;;;;;;27.05;5.93;;;6.40;99.90;;;;;;5060010;28;20041;-69
2022/01/18 06:23:47;;;;;;;27.88;5.78;;;6.40;99.90;;;;;;5066546;28;20051;-69
2022/01/18 06:26:15;;;;;;;32.05;6.60;;;6.30;99.90;;;;;;5064839;28;20036;-69
2022/01/18 06:28:45;;;;;;;19.67;6.55;;;6.40;99.90;;;;;;5066447;28;20509;-69
2022/01/18 06:31:11;;;;;;;40.33;6.80;;;6.30;99.90;;;;;;5062138;28;20047;-69
2022/01/18 06:33:36;;;;;;;30.20;7.15;;;6.30;99.90;;;;;;5065983;28;20049;-69
2022/01/18 06:36:03;;;;;;;19.42;5.90;;;6.30;99.90;;;;;;5062646;28;20052;-69
2022/01/18 06:38:28;;;;;;;19.38;6.28;;;6.30;99.90;;;;;;5056391;28;20418;-69
2022/01/18 06:40:54;;;;;;;18.80;6.22;;;6.30;99.90;;;;;;5067088;28;20044;-69
2022/01/18 06:43:19;;;;;;;21.02;5.38;;;6.30;99.90;;;;;;5065339;28;20051;-69
2022/01/18 06:45:45;;;;;;;23.95;5.53;;;6.30;99.90;;;;;;5065247;28;20044;-69
2022/01/18 06:48:11;;;;;;;22.20;5.45;;;6.30;99.90;;;;;;5064304;28;20047;-69
2022/01/18 06:50:37;;;;;;;18.85;5.55;;;6.30;99.90;;;;;;5061863;28;20053;-69
2022/01/18 06:53:03;;;;;;;22.15;5.28;;;6.30;99.90;;;;;;5065288;28;20040;-69
2022/01/18 06:55:29;;;;;;;21.88;5.40;;;6.30;99.90;;;;;;5068015;28;20037;-69
2022/01/18 06:57:56;;;;;;;19.35;5.65;;;6.30;99.90;;;;;;5066089;28;20040;-69
2022/01/18 07:00:21;;;;;;;25.38;5.25;;;6.30;99.90;;;;;;5055577;28;20060;-69
2022/01/18 07:02:47;;;;;;;15.57;4.78;;;6.30;99.90;;;;;;5068366;28;20467;-69
2022/01/18 07:05:13;;;;;;;22.05;5.60;;;6.30;99.90;;;;;;5056170;28;20052;-70
2022/01/18 07:07:40;;;;;;;17.52;4.40;;;6.30;99.90;;;;;;5067972;28;20080;-69
2022/01/18 07:10:07;;;;;;;13.30;4.82;;;6.40;99.90;;;;;;5062028;28;20052;-69
2022/01/18 07:12:34;;;;;;;15.00;4.75;;;6.40;99.90;;;;;;5062444;28;20039;-69
2022/01/18 07:15:02;;;;;;;10.17;4.57;;;6.40;99.90;;;;;;5070035;28;20048;-70
2022/01/18 07:17:28;;;;;;;14.80;4.60;;;6.30;99.90;;;;;;5057992;28;20112;-69
2022/01/18 07:19:54;;;;;;;21.63;5.10;;;6.30;99.90;;;;;;5072643;28;20058;-69
2022/01/18 07:22:20;;;;;;;20.65;6.00;;;6.30;99.90;;;;;;5067136;28;20405;-69
2022/01/18 07:24:47;;;;;;;23.30;5.30;;;6.40;99.90;;;;;;5069126;28;20048;-69
2022/01/18 07:27:14;;;;;;;24.63;5.10;;;6.30;99.90;;;;;;5067336;28;20048;-69
2022/01/18 07:29:42;;;;;;;22.27;5.68;;;6.40;99.90;;;;;;5069517;28;20087;-69
2022/01/18 07:32:08;;;;;;;22.60;4.67;;;6.30;99.90;;;;;;5064738;28;20090;-69
2022/01/18 07:34:38;;;;;;;19.90;5.22;;;6.30;99.90;;;;;;5066025;28;20044;-70
2022/01/18 07:37:04;;;;;;;21.58;5.32;;;6.30;99.90;;;;;;5062790;28;20638;-70
2022/01/18 07:39:30;;;;;;;26.38;5.38;;;6.30;99.90;;;;;;5060057;28;20052;-69
2022/01/18 07:41:55;;;;;;;14.85;5.28;;;6.30;99.90;;;;;;5076085;28;20045;-70
2022/01/18 07:44:21;;;;;;;27.50;4.88;;;6.30;99.90;;;;;;5063236;28;20478;-69
2022/01/18 07:46:47;;;;;;;9.75;4.28;;;6.30;99.90;;;;;;5064198;28;20045;-69
2022/01/18 07:49:13;;;;;;;19.23;5.53;;;6.30;99.90;;;;;;5064481;28;20043;-70
2022/01/18 07:51:38;;;;;;;21.92;5.60;;;6.30;99.90;;;;;;5061865;28;20172;-69
2022/01/18 07:54:04;;;;;;;22.13;5.47;;;6.30;99.90;;;;;;5062293;28;20041;-69
2022/01/18 07:56:30;;;;;;;22.63;5.63;;;6.40;99.90;;;;;;5070404;28;20383;-69
2022/01/18 07:58:55;;;;;;;21.42;5.70;;;6.40;99.90;;;;;;5067424;28;20044;-69
2022/01/18 08:01:21;;;;;;;18.67;5.07;;;6.40;99.90;;;;;;5065919;28;20554;-69
2022/01/18 08:03:46;;;;;;;18.70;5.15;;;6.40;99.90;;;;;;5065835;28;20051;-69
2022/01/18 08:06:12;;;;;;;18.85;5.05;;;6.30;99.90;;;;;;5068809;28;20075;-69
2022/01/18 08:08:39;;;;;;;17.55;4.70;;;6.40;99.90;;;;;;5061980;28;20476;-69
2022/01/18 08:11:08;;;;;;;14.25;4.63;;;6.40;99.90;;;;;;5068891;28;20048;-69
2022/01/18 08:13:40;;;;;;;15.05;4.90;;;6.40;99.90;;;;;;5067098;28;20116;-69
2022/01/18 08:16:22;;;;;;;25.58;5.47;;;6.40;99.90;;;;;;5069883;28;20048;-71
2022/01/18 08:18:50;;;;;;;12.63;4.53;;;6.40;99.90;;;;;;5051573;28;20044;-70
2022/01/18 08:21:15;;;;;;;19.95;6.38;;;6.40;99.90;;;;;;5059347;28;20465;-69
2022/01/18 08:23:41;;;;;;;36.97;6.68;;;6.50;99.90;;;;;;5068808;28;20041;-69
2022/01/18 08:26:07;;;;;;;21.83;5.60;;;6.50;99.90;;;;;;5066828;28;20058;-69
2022/01/18 08:28:32;;;;;;;29.48;7.63;;;6.50;99.90;;;;;;5067954;28;20048;-69
2022/01/18 08:30:58;;;;;;;28.42;6.13;;;6.50;99.90;;;;;;5067310;28;20440;-69
2022/01/18 08:33:24;;;;;;;25.60;6.63;;;6.60;99.90;;;;;;5071437;28;20127;-69
2022/01/18 08:35:50;;;;;;;25.17;8.15;;;6.60;99.90;;;;;;5066430;28;20508;-69
2022/01/18 08:38:16;;;;;;;26.02;7.55;;;6.60;99.90;;;;;;5060949;28;20527;-69
2022/01/18 08:40:42;;;;;;;20.95;7.10;;;6.50;99.90;;;;;;5063074;28;20045;-68
2022/01/18 08:43:07;;;;;;;34.05;9.43;;;6.60;99.90;;;;;;5062895;28;20118;-68
2022/01/18 08:45:33;;;;;;;31.60;8.98;;;6.60;99.90;;;;;;5069068;28;20051;-69
2022/01/18 08:47:59;;;;;;;29.55;11.32;;;6.60;99.90;;;;;;5068019;28;20040;-69
2022/01/18 08:50:25;;;;;;;34.25;10.55;;;6.60;99.90;;;;;;5069562;28;20494;-69
2022/01/18 08:52:52;;;;;;;37.25;11.43;;;6.60;99.90;;;;;;5067358;28;20060;-69
2022/01/18 08:55:21;;;;;;;31.25;10.57;;;6.60;99.90;;;;;;5062816;28;20084;-69
2022/01/18 08:57:47;;;;;;;28.80;12.10;;;6.60;99.90;;;;;;5064717;28;20455;-69
2022/01/18 09:00:15;;;;;;;26.70;11.40;;;6.60;99.90;;;;;;5066013;28;20755;-69
2022/01/18 09:02:41;;;;;;;34.08;11.25;;;6.60;99.90;;;;;;5064561;28;20095;-69
2022/01/18 09:05:08;;;;;;;39.13;12.02;;;6.60;99.90;;;;;;5065450;28;20049;-69
2022/01/18 09:07:36;;;;;;;37.50;11.75;;;6.70;99.90;;;;;;5061299;28;20136;-69
2022/01/18 09:10:06;;;;;;;37.42;12.68;;;6.70;99.90;;;;;;5066249;28;20064;-70
2022/01/18 09:12:33;;;;;;;24.58;11.32;;;6.80;99.90;;;;;;5067240;28;20048;-69
2022/01/18 09:15:00;;;;;;;31.73;12.02;;;6.80;99.90;;;;;;5067698;28;20048;-69
2022/01/18 09:17:28;;;;;;;26.50;10.07;;;6.80;99.90;;;;;;5066447;28;20049;-69
2022/01/18 09:19:54;;;;;;;35.55;12.52;;;6.80;99.90;;;;;;5067739;28;20382;-69
2022/01/18 09:22:20;;;;;;;27.27;10.52;;;6.80;99.90;;;;;;5062958;28;20059;-69
2022/01/18 09:24:46;;;;;;;35.30;11.70;;;6.90;99.90;;;;;;5062271;28;20040;-69
2022/01/18 09:27:12;;;;;;;30.33;11.13;;;6.90;99.90;;;;;;5065224;28;20033;-69
2022/01/18 09:29:39;;;;;;;39.25;11.98;;;7.00;99.90;;;;;;5067060;28;20471;-69
2022/01/18 09:32:06;;;;;;;35.40;12.88;;;7.00;99.90;;;;;;5063940;28;20076;-69
2022/01/18 09:34:32;;;;;;;31.25;11.57;;;7.00;99.90;;;;;;5058220;28;20049;-69
2022/01/18 09:36:58;;;;;;;37.42;13.95;;;7.10;99.90;;;;;;5068105;28;20055;-70
2022/01/18 09:39:25;;;;;;;32.38;12.90;;;7.10;99.90;;;;;;5066691;28;20477;-68
2022/01/18 09:41:54;;;;;;;38.30;12.90;;;7.20;99.90;;;;;;5067475;28;20052;-69
2022/01/18 09:44:20;;;;;;;33.75;13.25;;;7.20;99.90;;;;;;5065171;28;20048;-69
2022/01/18 09:46:49;;;;;;;32.55;12.85;;;7.30;99.90;;;;;;5065992;28;20080;-69
2022/01/18 09:49:17;;;;;;;42.75;13.95;;;7.30;99.90;;;;;;5068789;28;20103;-69
2022/01/18 09:51:43;;;;;;;36.50;12.52;;;7.30;99.90;;;;;;5060695;28;20060;-69
2022/01/18 09:54:08;;;;;;;36.35;13.13;;;7.30;99.90;;;;;;5066536;28;20490;-69
2022/01/18 09:56:34;;;;;;;42.63;13.75;;;7.30;99.90;;;;;;5062836;28;20037;-68
2022/01/18 09:59:00;;;;;;;30.88;12.65;;;7.40;99.90;;;;;;5067948;28;20102;-69
2022/01/18 10:01:28;;;;;;;33.90;12.93;;;7.40;99.90;;;;;;5067054;28;20055;-69
2022/01/18 10:04:17;;;;;;;33.65;13.75;;;7.50;99.90;;;;;;5062457;28;20048;-69
2022/01/18 10:06:43;;;;;;;40.53;13.45;;;7.50;99.90;;;;;;5067419;28;20064;-69
2022/01/18 10:09:14;;;;;;;31.10;13.32;;;7.50;99.90;;;;;;5068461;28;20464;-69
2022/01/18 10:12:08;;;;;;;35.25;14.30;;;7.60;99.90;;;;;;5060982;28;20153;-69
2022/01/18 10:14:36;;;;;;;28.52;11.75;;;7.60;99.90;;;;;;5066636;28;20033;-69
2022/01/18 10:17:03;;;;;;;22.58;11.07;;;7.60;99.90;;;;;;5064513;28;20049;-69
2022/01/18 10:19:38;;;;;;;34.78;12.50;;;7.70;99.90;;;;;;5064287;28;20467;-69
2022/01/18 10:22:08;;;;;;;26.98;11.90;;;7.80;99.90;;;;;;5060487;28;20049;-69
2022/01/18 10:24:34;;;;;;;31.13;13.18;;;7.80;99.90;;;;;;5064522;28;20099;-69
2022/01/18 10:26:59;;;;;;;25.20;13.05;;;7.90;99.90;;;;;;5064317;28;20765;-69
2022/01/18 10:29:32;;;;;;;25.92;12.00;;;8.00;99.90;;;;;;5065226;28;20732;-69
2022/01/18 10:32:08;;;;;;;31.20;11.82;;;8.10;99.90;;;;;;5061097;28;20055;-69
2022/01/18 10:37:16;;;;;;;35.22;12.95;;;8.10;99.90;;;;;;5068240;28;20397;-69
2022/01/18 10:39:51;;;;;;;31.95;12.80;;;8.20;99.90;;;;;;5061684;28;20079;-69
2022/01/18 10:42:27;;;;;;;28.58;10.82;;;8.20;99.90;;;;;;5065877;28;20123;-69
2022/01/18 10:45:29;;;;;;;32.67;10.35;;;8.20;99.90;;;;;;5067002;28;20405;-69
2022/01/18 10:48:00;;;;;;;23.38;10.80;;;8.30;99.90;;;;;;5055605;28;20055;-69
2022/01/18 10:50:33;;;;;;;27.42;10.90;;;8.20;99.90;;;;;;5060117;28;20053;-69
2022/01/18 10:53:22;;;;;;;35.13;11.25;;;8.30;99.90;;;;;;5061662;28;20048;-69
2022/01/18 10:55:51;;;;;;;31.67;9.85;;;8.30;99.90;;;;;;5062160;28;20405;-69
2022/01/18 10:58:22;;;;;;;17.42;6.47;;;8.30;99.90;;;;;;5066753;28;20059;-69
2022/01/18 11:00:48;;;;;;;24.23;7.82;;;8.40;99.90;;;;;;5063234;28;20070;-69
2022/01/18 11:03:13;;;;;;;19.63;7.03;;;8.40;99.90;;;;;;5060471;28;20402;-70
2022/01/18 11:05:42;;;;;;;23.85;8.00;;;8.50;99.90;;;;;;5066479;28;20040;-69
2022/01/18 11:08:07;;;;;;;14.05;5.80;;;8.60;99.90;;;;;;5068094;28;20148;-69
2022/01/18 11:10:47;;;;;;;20.30;6.78;;;8.60;99.90;;;;;;5059637;28;20128;-69
2022/01/18 11:13:20;;;;;;;26.38;6.90;;;8.70;99.90;;;;;;5065954;28;20132;-68
2022/01/18 11:15:50;;;;;;;37.10;7.38;;;8.70;99.90;;;;;;5064531;28;20044;-69
2022/01/18 11:18:25;;;;;;;20.60;7.60;;;8.70;99.90;;;;;;5064720;28;20067;-68
2022/01/18 11:20:51;;;;;;;26.70;8.25;;;8.60;99.90;;;;;;5060934;28;20493;-69
2022/01/18 11:23:20;;;;;;;23.88;7.68;;;8.60;99.90;;;;;;5066015;28;20121;-68
2022/01/18 11:25:48;;;;;;;24.42;7.57;;;8.60;99.90;;;;;;5060974;28;20053;-69
2022/01/18 11:28:14;;;;;;;19.17;6.93;;;8.60;99.90;;;;;;5068568;28;20552;-70
2022/01/18 11:30:42;;;;;;;22.77;6.75;;;8.60;99.90;;;;;;5065717;28;20838;-70
2022/01/18 11:33:12;;;;;;;26.05;7.78;;;8.60;99.90;;;;;;5064326;28;20071;-71
2022/01/18 11:35:48;;;;;;;30.20;8.68;;;8.60;99.90;;;;;;5064780;28;20028;-70
2022/01/18 11:38:53;;;;;;;22.88;8.18;;;8.50;99.90;;;;;;5065696;28;20048;-71
2022/01/18 11:41:27;;;;;;;28.05;10.07;;;8.50;99.90;;;;;;5059943;28;20040;-70
2022/01/18 11:43:55;;;;;;;29.55;9.60;;;8.40;99.90;;;;;;5065249;28;20566;-70
2022/01/18 11:46:23;;;;;;;;;;;8.40;99.90;;;;;;5066042;28;20053;-70
2022/01/18 11:49:02;;;;;;;21.98;8.18;;;8.40;99.90;;;;;;5066510;28;20411;-70
2022/01/18 11:51:49;;;;;;;39.47;8.15;;;8.40;99.90;;;;;;5063743;28;20040;-70
2022/01/18 11:54:41;;;;;;;28.75;8.38;;;8.50;99.90;;;;;;5064539;28;20044;-70
2022/01/18 11:57:22;;;;;;;23.35;8.68;;;8.60;99.90;;;;;;5064429;28;20059;-71
2022/01/18 11:59:53;;;;;;;24.20;8.82;;;8.60;99.90;;;;;;5058913;28;20493;-70
2022/01/18 12:02:40;;;;;;;22.30;8.80;;;8.60;99.90;;;;;;5067547;28;20056;-70
2022/01/18 12:05:14;;;;;;;28.17;9.73;;;8.60;99.90;;;;;;5066235;28;20116;-70
2022/01/18 12:07:43;;;;;;;26.55;8.52;;;8.50;99.90;;;;;;5054460;28;20056;-70
2022/01/18 12:10:27;;;;;;;25.95;7.80;;;8.50;99.90;;;;;;5068136;28;20098;-70
2022/01/18 12:12:54;;;;;;;36.15;9.95;;;8.40;99.90;;;;;;5065171;28;20127;-70
2022/01/18 12:15:22;;;;;;;25.63;9.70;;;8.40;99.90;;;;;;5064566;28;20067;-70
2022/01/18 12:18:03;;;;;;;29.58;10.30;;;8.40;99.90;;;;;;5068257;28;20048;-70
2022/01/18 12:20:39;;;;;;;23.42;9.32;;;8.40;99.90;;;;;;5056861;28;20048;-70
2022/01/18 12:23:08;;;;;;;24.90;9.25;;;8.40;99.90;;;;;;5069029;28;20494;-70
2022/01/18 12:26:00;;;;;;;23.77;9.00;;;8.30;99.90;;;;;;5068069;28;20117;-70
2022/01/18 12:29:08;;;;;;;25.20;9.32;;;8.30;99.90;;;;;;5057318;28;20143;-70
2022/01/18 12:34:38;;;;;;;25.20;9.30;;;8.20;99.90;;;;;;5065573;28;20504;-71
2022/01/18 12:37:24;;;;;;;27.05;9.68;;;8.30;99.90;;;;;;5058991;28;20105;-70
2022/01/18 12:39:53;;;;;;;25.65;10.20;;;8.20;99.90;;;;;;5069464;28;20117;-71
2022/01/18 12:44:20;;;;;;;27.73;9.85;;;8.20;99.90;;;;;;5062400;28;20064;-71
2022/01/18 12:45:25;;;;;;;21.88;8.23;;;8.20;99.90;;;;;;5068893;28;20049;-71
2022/01/18 12:48:05;;;;;;;17.10;7.60;;;8.10;99.90;;;;;;5064420;28;20085;-71
2022/01/18 12:50:30;;;;;;;23.90;7.80;;;8.20;99.90;;;;;;5063984;28;20052;-71
2022/01/18 12:53:05;;;;;;;12.38;6.75;;;8.10;99.90;;;;;;5063459;28;20041;-71
2022/01/18 12:55:42;;;;;;;16.75;7.45;;;8.10;99.90;;;;;;5062708;28;20052;-71
2022/01/18 12:58:27;;;;;;;29.45;7.95;;;8.10;99.90;;;;;;5064368;28;20139;-71
2022/01/18 13:00:57;;;;;;;23.80;8.13;;;8.00;99.90;;;;;;5062931;28;20447;-71
2022/01/18 13:03:26;;;;;;;18.77;7.40;;;8.00;99.90;;;;;;5055192;28;20046;-71
2022/01/18 13:05:59;;;;;;;21.58;7.70;;;8.00;99.90;;;;;;5061331;28;20065;-71
2022/01/18 13:08:40;;;;;;;25.70;7.50;;;8.00;99.90;;;;;;5060294;28;20044;-71
2022/01/18 13:11:06;;;;;;;20.75;7.18;;;8.00;99.90;;;;;;5056871;28;20032;-72
2022/01/18 13:13:33;;;;;;;19.13;7.70;;;8.00;99.90;;;;;;5066439;28;20043;-71
2022/01/18 13:26:58;;;;;;;19.23;7.40;;;7.90;99.90;;;;;;5065337;28;20056;-71
2022/01/18 13:29:26;;;;;;;20.95;7.78;;;7.90;99.90;;;;;;5067038;28;20083;-69
2022/01/18 13:32:20;;;;;;;;;;;7.90;99.90;;;;;;5062893;28;20402;-69
2022/01/18 13:34:48;;;;;;;29.20;14.07;;;7.90;99.90;;;;;;5065198;28;19979;-70
2022/01/18 13:37:16;;;;;;;23.63;7.70;;;7.90;99.90;;;;;;5060799;28;20048;-69
2022/01/18 13:39:48;;;;;;;20.17;6.85;;;7.90;99.90;;;;;;5066514;28;20045;-69
2022/01/18 13:42:16;;;;;;;23.70;7.50;;;7.80;99.90;;;;;;5065853;28;20040;-69
2022/01/18 13:45:17;;;;;;;19.25;6.57;;;7.80;99.90;;;;;;5062771;28;20057;-69
2022/01/18 13:48:06;;;;;;;42.38;12.88;;;7.80;99.90;;;;;;5065278;28;20509;-69
2022/01/18 13:50:38;;;;;;;32.47;12.50;;;7.70;99.90;;;;;;5056521;28;20115;-69
2022/01/18 13:53:15;;;;;;;28.95;13.60;;;7.70;99.90;;;;;;5071327;28;20127;-68
2022/01/18 13:55:57;;;;;;;28.77;10.97;;;7.70;99.90;;;;;;5064227;28;20045;-69
2022/01/18 13:58:32;;;;;;;34.13;21.83;;;7.70;99.90;;;;;;5064987;28;20307;-69
2022/01/18 14:01:24;;;;;;;63.58;34.17;;;7.60;99.90;;;;;;5059370;28;20033;-69
2022/01/18 14:04:03;;;;;;;49.80;29.38;;;7.60;99.90;;;;;;5059015;28;20060;-69
2022/01/18 14:06:37;;;;;;;38.90;22.92;;;7.50;99.90;;;;;;5058201;28;20145;-69
2022/01/18 14:09:03;;;;;;;26.08;11.68;;;7.40;99.90;;;;;;5062558;28;20050;-69
2022/01/18 14:11:32;;;;;;;33.85;17.08;;;7.30;99.90;;;;;;5058065;28;20162;-69
2022/01/18 14:13:58;;;;;;;33.97;14.82;;;7.30;99.90;;;;;;5066368;28;20059;-69
2022/01/18 14:16:33;;;;;;;30.55;16.50;;;7.30;99.90;;;;;;5064698;28;20513;-69